Flight Track Log - Related Links

Times and Time Zones

All times are in EDT time to prevent confusion due to time zone crossing. See the VRD69 flight status page for this flight to view local times or setup timezone preferences in your user account.

Time Position Orientation Groundspeed Altitude Reporting Facility
EDT Latitude Longitude Course Direction KTS MPH feet Rate Location/Type
Sun 10:13:23 AM 38.9460 -77.5210 265° West 159 183 1,900  Level FlightAware ADS-B
Sun 10:13:47 AM 38.9430 -77.5460 261° West 186 214 2,300 1,111 Climbing FlightAware ADS-B
Sun 10:14:17 AM 38.9380 -77.5830 260° West 225 259 2,900 1,500 Climbing FlightAware ADS-B
Sun 10:14:47 AM 38.9310 -77.6260 258° West 256 295 3,800 2,486 Climbing FlightAware ADS-B
Sun 10:15:27 AM 38.9090 -77.6790 242° Southwest 256 295 5,800 3,000 Climbing FlightAware ADS-B
Sun 10:15:37 AM 38.9030 -77.6940 243° Southwest 260 299 6,300 2,700 Climbing FlightAware ADS-B
Sun 10:16:07 AM 38.8840 -77.7310 237° Southwest 265 305 7,600 2,667 Climbing FlightAware ADS-B
Sun 10:16:22 AM 38.8740 -77.7530 240° Southwest 268 308 8,300 3,000 Climbing FlightAware ADS-B
Sun 10:16:37 AM 38.8730 -77.7770 267° West 269 310 9,100 2,080 Climbing FlightAware ADS-B
Sun 10:17:37 AM 38.8690 -77.8770 267° West 305 351 10,900 1,429 Climbing FlightAware ADS-B
Sun 10:18:22 AM 38.8650 -77.9640 267° West 349 402 11,600 1,200 Climbing FlightAware ADS-B
Sun 10:19:02 AM 38.8610 -78.0500 267° West 372 428 12,600 1,931 Climbing FlightAware ADS-B
Sun 10:19:49 AM 38.8570 -78.1510 267° West 374 430 14,400 2,047 Climbing FlightAware ADS-B
Sun 10:20:27 AM 38.8540 -78.2330 267° West 387 445 15,500 1,875 Climbing FlightAware ADS-B
Sun 10:21:25 AM 38.8530 -78.3740 270° West 393 452 17,400 1,898 Climbing FlightAware ADS-B
Sun 10:22:05 AM 38.8520 -78.4680 269° West 396 456 18,600 1,605 Climbing FlightAware ADS-B
Sun 10:22:51 AM 38.8500 -78.5740 269° West 403 464 19,700 1,463 Climbing FlightAware ADS-B
Sun 10:23:27 AM 38.8490 -78.6640 269° West 410 472 20,600 1,421 Climbing FlightAware ADS-B
Sun 10:24:07 AM 38.8480 -78.7610 269° West 417 480 21,500 1,412 Climbing FlightAware ADS-B
Sun 10:24:52 AM 38.8460 -78.8720 269° West 421 484 22,600 1,467 Climbing FlightAware ADS-B
Sun 10:25:37 AM 38.8440 -78.9810 269° West 421 484 23,700 1,500 Climbing FlightAware ADS-B
Sun 10:26:12 AM 38.8430 -79.0730 269° West 421 484 24,600 1,280 Climbing FlightAware ADS-B
Sun 10:26:52 AM 38.8410 -79.1700 269° West 425 489 25,300 1,050 Climbing FlightAware ADS-B
Sun 10:27:32 AM 38.8390 -79.2670 269° West 429 494 26,000 1,125 Climbing FlightAware ADS-B
Sun 10:28:12 AM 38.8370 -79.3740 269° West 432 497 26,800 1,250 Climbing FlightAware ADS-B
Sun 10:29:08 AM 38.8340 -79.5170 269° West 435 501 28,000 1,456 Climbing FlightAware ADS-B
Sun 10:29:55 AM 38.8320 -79.6400 269° West 429 494 29,300 1,667 Climbing FlightAware ADS-B
Sun 10:30:38 AM 38.8290 -79.7430 268° West 422 486 30,500 1,650 Climbing FlightAware ADS-B
Sun 10:31:15 AM 38.8270 -79.8380 268° West 423 487 31,500 1,403 Climbing FlightAware ADS-B
Sun 10:31:55 AM 38.8250 -79.9380 269° West 426 490 32,300 1,357 Climbing FlightAware ADS-B
Sun 10:32:39 AM 38.8220 -80.0510 268° West 423 487 33,400 1,275 Climbing FlightAware ADS-B
Sun 10:33:15 AM 38.8200 -80.1420 268° West 423 487 34,000 474 Climbing FlightAware ADS-B
Sun 10:33:55 AM 38.8170 -80.2400 268° West 425 489 34,000  Level FlightAware ADS-B
Sun 10:34:35 AM 38.8140 -80.3420 268° West 423 487 34,000  Level FlightAware ADS-B
Sun 10:35:17 AM 38.8110 -80.4450 268° West 423 487 34,000  Level FlightAware ADS-B
Sun 10:35:57 AM 38.8080 -80.5420 268° West 422 486 34,000  Level FlightAware ADS-B
Sun 10:36:32 AM 38.8050 -80.6360 268° West 421 484 34,000 78 Level FlightAware ADS-B
Sun 10:37:14 AM 38.8020 -80.7400 268° West 419 482 34,100  Climbing FlightAware ADS-B
Sun 10:37:52 AM 38.7990 -80.8330 268° West 415 478 34,000 -77 Descending FlightAware ADS-B
Sun 10:38:32 AM 38.7960 -80.9320 268° West 414 476 34,000  Level FlightAware ADS-B
Sun 10:39:06 AM 38.8010 -81.0160 274° West 435 501 34,000  Level FlightAware ADS-B
Sun 10:39:46 AM 38.8240 -81.1160 286° West 437 503 34,000  Level FlightAware ADS-B
Sun 10:40:25 AM 38.8440 -81.2090 285° West 439 505 34,000 71 Level FlightAware ADS-B
Sun 10:41:10 AM 38.8690 -81.3260 285° West 439 505 34,100  Climbing FlightAware ADS-B
Sun 10:41:55 AM 38.8920 -81.4360 285° West 439 505 34,000 -78 Descending FlightAware ADS-B
Sun 10:42:27 AM 38.9090 -81.5170 285° West 437 503 34,000  Level FlightAware ADS-B
Sun 10:43:11 AM 38.9320 -81.6280 285° West 434 499 34,000  Level FlightAware ADS-B
Sun 10:43:49 AM 38.9520 -81.7220 285° West 432 497 34,000  Level FlightAware ADS-B
Sun 10:44:27 AM 38.9710 -81.8140 285° West 430 495 34,000  Level FlightAware ADS-B
Sun 10:45:07 AM 38.9920 -81.9150 285° West 429 494 34,000  Level FlightAware ADS-B
Sun 10:45:49 AM 39.0130 -82.0160 285° West 430 495 34,000  Level FlightAware ADS-B
Sun 10:46:39 AM 39.0380 -82.1400 285° West 428 493 34,000  Level FlightAware ADS-B
Sun 10:47:19 AM 39.0580 -82.2390 285° West 427 491 34,000  Level FlightAware ADS-B
Sun 10:48:01 AM 39.0780 -82.3380 285° West 426 490 34,000  Level FlightAware ADS-B
Sun 10:48:45 AM 39.1010 -82.4500 285° West 425 489 34,000  Level FlightAware ADS-B
Sun 10:49:29 AM 39.1220 -82.5540 285° West 426 490 34,000  Level FlightAware ADS-B
Sun 10:50:07 AM 39.1400 -82.6440 284° West 428 493 34,000  Level FlightAware ADS-B
Sun 10:50:49 AM 39.1620 -82.7550 284° West 430 495 34,000  Level FlightAware ADS-B
Sun 10:51:25 AM 39.1780 -82.8380 284° West 430 495 34,000 79 Level FlightAware ADS-B
Sun 10:52:05 AM 39.1980 -82.9390 284° West 429 494 34,100 69 Climbing FlightAware ADS-B
Sun 10:52:52 AM 39.2210 -83.0560 284° West 424 488 34,100 -67 Level FlightAware ADS-B
Sun 10:53:34 AM 39.2410 -83.1570 284° West 423 487 34,000 -71 Descending FlightAware ADS-B
Sun 10:54:16 AM 39.2610 -83.2610 284° West 420 483 34,000  Level FlightAware ADS-B
Sun 10:55:09 AM 39.2860 -83.3920 284° West 419 482 34,000  Level FlightAware ADS-B
Sun 10:55:55 AM 39.3060 -83.4990 284° West 420 483 34,000  Level FlightAware ADS-B
Sun 10:56:26 AM 39.3210 -83.5760 284° West 420 483 34,000  Level FlightAware ADS-B
Sun 10:57:04 AM 39.3390 -83.6690 284° West 421 484 34,000  Level FlightAware ADS-B
Sun 10:57:47 AM 39.3600 -83.7770 284° West 420 483 34,000  Level FlightAware ADS-B
Sun 10:58:35 AM 39.3810 -83.8940 283° West 418 481 34,000 68 Level FlightAware ADS-B
Sun 10:59:15 AM 39.3990 -83.9880 284° West 412 474 34,100 75 Climbing FlightAware ADS-B
Sun 10:59:55 AM 39.4170 -84.0840 284° West 407 468 34,100 -61 Level FlightAware ADS-B
Sun 11:00:53 AM 39.4400 -84.2110 283° West 405 466 34,000 -52 Descending FlightAware ADS-B
Sun 11:01:51 AM 39.4660 -84.3550 283° West 400 460 34,000  Level FlightAware ADS-B
Sun 11:02:27 AM 39.4820 -84.4390 284° West 397 457 34,000  Level FlightAware ADS-B
Sun 11:03:23 AM 39.5050 -84.5650 283° West 393 452 34,000  Level FlightAware ADS-B
Sun 11:04:03 AM 39.5210 -84.6560 283° West 390 449 34,000  Level FlightAware ADS-B
Sun 11:04:45 AM 39.5380 -84.7540 283° West 389 448 34,000  Level FlightAware ADS-B
Sun 11:05:27 AM 39.5560 -84.8520 283° West 390 449 34,000  Level FlightAware ADS-B
Sun 11:06:09 AM 39.5730 -84.9470 283° West 390 449 34,000  Level FlightAware ADS-B
Sun 11:06:46 AM 39.5870 -85.0290 283° West 392 451 34,000  Level FlightAware ADS-B
Sun 11:07:28 AM 39.6050 -85.1260 284° West 393 452 34,000  Level FlightAware ADS-B
Sun 11:08:07 AM 39.6200 -85.2170 282° West 394 453 34,000  Level FlightAware ADS-B
Sun 11:08:53 AM 39.6380 -85.3210 283° West 394 453 34,000  Level FlightAware ADS-B
Sun 11:09:29 AM 39.6530 -85.4040 283° West 394 453 34,000  Level FlightAware ADS-B
Sun 11:10:13 AM 39.6700 -85.5030 283° West 394 453 34,000  Level FlightAware ADS-B
Sun 11:10:56 AM 39.6880 -85.6060 283° West 393 452 34,000  Level FlightAware ADS-B
Sun 11:11:41 AM 39.7050 -85.7080 282° West 392 451 34,000  Level FlightAware ADS-B
Sun 11:12:21 AM 39.7210 -85.8000 283° West 389 448 34,000  Level FlightAware ADS-B
Sun 11:13:04 AM 39.7350 -85.8840 282° West 388 447 34,000  Level FlightAware ADS-B
Sun 11:13:44 AM 39.7520 -85.9890 282° West 388 447 34,000  Level FlightAware ADS-B
Sun 11:14:25 AM 39.7680 -86.0830 283° West 387 445 34,000  Level FlightAware ADS-B
Sun 11:15:07 AM 39.7830 -86.1740 282° West 386 444 34,000  Level FlightAware ADS-B
Sun 11:15:50 AM 39.8020 -86.2740 284° West 386 444 34,000  Level FlightAware ADS-B
Sun 11:16:28 AM 39.8170 -86.3560 283° West 384 442 34,000  Level FlightAware ADS-B
Sun 11:17:12 AM 39.8350 -86.4520 284° West 383 441 34,000  Level FlightAware ADS-B
Sun 11:17:56 AM 39.8470 -86.5590 278° West 387 445 34,000  Level FlightAware ADS-B
Sun 11:18:40 AM 39.8530 -86.6610 274° West 386 444 34,000  Level FlightAware ADS-B
Sun 11:19:20 AM 39.8590 -86.7530 275° West 385 443 34,000  Level FlightAware ADS-B
Sun 11:19:56 AM 39.8650 -86.8360 275° West 384 442 34,000  Level FlightAware ADS-B
Sun 11:21:26 AM 39.8760 -87.0320 274° West 382 440 34,000  Level FlightAware ADS-B
Sun 11:22:09 AM 39.8820 -87.1260 275° West 381 438 34,000  Level FlightAware ADS-B
Sun 11:22:46 AM 39.8880 -87.2230 275° West 380 437 34,000  Level FlightAware ADS-B
Sun 11:23:50 AM 39.8950 -87.3570 274° West 381 438 34,000  Level FlightAware ADS-B
Sun 11:24:44 AM 39.9020 -87.4920 274° West 380 437 34,000  Level FlightAware ADS-B
Sun 11:25:23 AM 39.9080 -87.5800 275° West 378 435 34,000  Level FlightAware ADS-B
Sun 11:26:05 AM 39.9130 -87.6740 274° West 377 434 34,000  Level FlightAware ADS-B
Sun 11:26:42 AM 39.9180 -87.7600 274° West 376 433 34,000  Level FlightAware ADS-B
Sun 11:27:21 AM 39.9220 -87.8470 273° West 376 433 34,000  Level FlightAware ADS-B
Sun 11:27:51 AM 39.9260 -87.9130 275° West 375 432 34,000  Level FlightAware ADS-B
Sun 11:28:29 AM 39.9300 -87.9990 273° West 376 433 34,000  Level FlightAware ADS-B
Sun 11:29:06 AM 39.9340 -88.0820 274° West 376 433 34,000  Level FlightAware ADS-B
Sun 11:29:48 AM 39.9390 -88.1780 274° West 378 435 34,000  Level FlightAware ADS-B
Sun 11:30:28 AM 39.9440 -88.2710 274° West 380 437 34,000 68 Level FlightAware ADS-B
Sun 11:31:16 AM 39.9490 -88.3780 274° West 380 437 34,100  Climbing FlightAware ADS-B
Sun 11:31:56 AM 39.9530 -88.4700 273° West 379 436 34,000 -75 Descending FlightAware ADS-B
Sun 11:32:36 AM 39.9580 -88.5600 274° West 378 435 34,000  Level FlightAware ADS-B
Sun 11:33:18 AM 39.9620 -88.6510 273° West 376 433 34,000  Level FlightAware ADS-B
Sun 11:33:58 AM 39.9660 -88.7450 273° West 373 429 34,000  Level FlightAware ADS-B
Sun 11:34:36 AM 39.9700 -88.8310 274° West 371 427 34,000  Level FlightAware ADS-B
Sun 11:35:15 AM 39.9730 -88.9150 273° West 370 426 34,000  Level FlightAware ADS-B
Sun 11:35:54 AM 39.9770 -89.0030 273° West 369 425 34,000  Level FlightAware ADS-B
Sun 11:36:36 AM 39.9810 -89.0990 273° West 369 425 34,000  Level FlightAware ADS-B
Sun 11:37:16 AM 39.9850 -89.1870 273° West 369 425 34,000  Level FlightAware ADS-B
Sun 11:38:02 AM 39.9890 -89.2880 273° West 371 427 34,000  Level FlightAware ADS-B
Sun 11:38:42 AM 39.9930 -89.3750 273° West 373 429 34,000  Level FlightAware ADS-B
Sun 11:39:26 AM 39.9960 -89.4740 272° West 374 430 34,000  Level FlightAware ADS-B
Sun 11:40:06 AM 40.0000 -89.5640 273° West 373 429 34,000  Level FlightAware ADS-B
Sun 11:40:44 AM 40.0030 -89.6530 273° West 373 429 34,000  Level FlightAware ADS-B
Sun 11:41:24 AM 40.0070 -89.7430 273° West 373 429 34,000  Level FlightAware ADS-B
Sun 11:42:02 AM 40.0100 -89.8250 273° West 373 429 34,000  Level FlightAware ADS-B
Sun 11:42:50 AM 40.0130 -89.9350 272° West 375 432 34,000  Level FlightAware ADS-B
Sun 11:43:32 AM 40.0170 -90.0230 273° West 375 432 34,000  Level FlightAware ADS-B
Sun 11:44:12 AM 40.0200 -90.1200 272° West 377 434 34,000  Level FlightAware ADS-B
Sun 11:44:50 AM 40.0220 -90.2020 272° West 377 434 34,000  Level FlightAware ADS-B
Sun 11:45:34 AM 40.0260 -90.3060 273° West 378 435 34,000  Level FlightAware ADS-B
Sun 11:46:12 AM 40.0280 -90.3940 272° West 379 436 34,000  Level FlightAware ADS-B
Sun 11:46:53 AM 40.0310 -90.4890 272° West 380 437 34,000  Level FlightAware ADS-B
Sun 11:47:41 AM 40.0350 -90.5940 273° West 381 438 34,000  Level FlightAware ADS-B
Sun 11:48:21 AM 40.0370 -90.6900 272° West 381 438 34,000  Level FlightAware ADS-B
Sun 11:49:05 AM 40.0400 -90.7890 272° West 382 440 34,000  Level FlightAware ADS-B
Sun 11:49:40 AM 40.0420 -90.8670 272° West 381 438 34,000  Level FlightAware ADS-B
Sun 11:50:22 AM 40.0450 -90.9640 272° West 383 441 34,000  Level FlightAware ADS-B
Sun 11:51:13 AM 40.0480 -91.0850 272° West 384 442 34,000  Level FlightAware ADS-B
Sun 11:51:53 AM 40.0500 -91.1750 272° West 384 442 34,000  Level FlightAware ADS-B
Sun 11:52:32 AM 40.0520 -91.2640 272° West 384 442 34,000  Level FlightAware ADS-B
Sun 11:53:11 AM 40.0530 -91.3410 271° West 384 442 34,000  Level FlightAware ADS-B
Sun 11:54:00 AM 40.0570 -91.4700 272° West 383 441 34,000  Level FlightAware ADS-B
Sun 11:54:41 AM 40.0590 -91.5630 272° West 383 441 34,000  Level FlightAware ADS-B
Sun 11:55:22 AM 40.0600 -91.6560 271° West 384 442 34,000  Level FlightAware ADS-B
Sun 11:56:04 AM 40.0620 -91.7460 272° West 384 442 34,000  Level FlightAware ADS-B
Sun 11:56:42 AM 40.0630 -91.8210 271° West 384 442 34,000  Level FlightAware ADS-B
Sun 11:57:36 AM 40.0660 -91.9660 272° West 386 444 34,000  Level FlightAware ADS-B
Sun 11:58:18 AM 40.0670 -92.0490 271° West 386 444 34,000  Level FlightAware ADS-B
Sun 11:59:44 AM 40.0700 -92.2480 271° West 386 444 34,000  Level FlightAware ADS-B
Sun 12:00:28 PM 40.0720 -92.3590 271° West 388 447 34,000  Level FlightAware ADS-B
Sun 12:01:04 PM 40.0730 -92.4310 271° West 388 447 34,000  Level FlightAware ADS-B
Sun 12:01:54 PM 40.0750 -92.5720 271° West 388 447 34,000  Level FlightAware ADS-B
Sun 12:02:38 PM 40.0760 -92.6740 271° West 386 444 34,000  Level FlightAware ADS-B
Sun 12:03:16 PM 40.0770 -92.7630 271° West 385 443 34,000  Level FlightAware ADS-B
Sun 12:03:56 PM 40.0780 -92.8550 271° West 385 443 34,000  Level FlightAware ADS-B
Sun 12:04:36 PM 40.0790 -92.9470 271° West 385 443 34,000  Level FlightAware ADS-B
Sun 12:05:16 PM 40.0800 -93.0400 271° West 386 444 34,000  Level FlightAware ADS-B
Sun 12:06:00 PM 40.0800 -93.1430 270° West 387 445 34,000  Level FlightAware ADS-B
Sun 12:06:36 PM 40.0810 -93.2260 271° West 387 445 34,000  Level FlightAware ADS-B
Sun 12:07:24 PM 40.0810 -93.3380 270° West 388 447 34,000  Level FlightAware ADS-B
Sun 12:08:06 PM 40.0820 -93.4360 271° West 388 447 34,000  Level FlightAware ADS-B
Sun 12:08:48 PM 40.0820 -93.5350 270° West 387 445 34,000  Level FlightAware ADS-B
Sun 12:09:32 PM 40.0830 -93.6370 271° West 387 445 34,000  Level FlightAware ADS-B
Sun 12:10:12 PM 40.0830 -93.7270 270° West 388 447 34,000  Level FlightAware ADS-B
Sun 12:10:56 PM 40.0830 -93.8330 270° West 389 448 34,000  Level FlightAware ADS-B
Sun 12:11:32 PM 40.0830 -93.9180 270° West 391 450 34,000  Level FlightAware ADS-B
Sun 12:12:34 PM 40.0830 -94.0640 270° West 392 451 34,000  Level FlightAware ADS-B
Sun 12:13:17 PM 40.0830 -94.1660 270° West 393 452 34,000  Level FlightAware ADS-B
Sun 12:13:55 PM 40.0830 -94.2560 270° West 394 453 34,000  Level FlightAware ADS-B
Sun 12:14:37 PM 40.0820 -94.3580 269° West 395 455 34,000  Level FlightAware ADS-B
Sun 12:15:19 PM 40.0820 -94.4550 270° West 395 455 34,000  Level FlightAware ADS-B
Sun 12:15:55 PM 40.0820 -94.5420 270° West 394 453 34,000  Level FlightAware ADS-B
Sun 12:16:39 PM 40.0810 -94.6430 269° West 395 455 34,000  Level FlightAware ADS-B
Sun 12:17:17 PM 40.0800 -94.7370 269° West 396 456 34,000  Level FlightAware ADS-B
Sun 12:17:55 PM 40.0800 -94.8270 270° West 397 457 34,000  Level FlightAware ADS-B
Sun 12:18:35 PM 40.0790 -94.9210 269° West 398 458 34,000  Level FlightAware ADS-B
Sun 12:19:17 PM 40.0780 -95.0220 269° West 400 460 34,000  Level FlightAware ADS-B
Sun 12:19:53 PM 40.0770 -95.1100 269° West 401 461 34,000  Level FlightAware ADS-B
Sun 12:22:34 PM 40.0730 -95.4550 269° West 403 464 34,000  Level FlightAware ADS-B
Sun 12:23:13 PM 40.0720 -95.5360 269° West 403 464 34,000  Level FlightAware ADS-B
Sun 12:23:49 PM 40.0710 -95.6110 269° West 403 464 34,000  Level FlightAware ADS-B
Sun 12:24:47 PM 40.0690 -95.7310 269° West 403 464 34,000  Level FlightAware ADS-B
Sun 12:25:23 PM 40.0680 -95.8050 269° West 403 464 34,000  Level FlightAware ADS-B
Sun 12:26:02 PM 40.0670 -95.8860 269° West 403 464 34,000  Level FlightAware ADS-B
Sun 12:26:50 PM 40.0660 -95.9850 269° West 403 464 34,000  Level FlightAware ADS-B
Sun 12:27:47 PM 40.0610 -96.2320 269° West 396 456 34,000  Level FlightAware ADS-B
Sun 12:28:23 PM 40.0590 -96.3360 269° West 396 456 34,000  Level FlightAware ADS-B
Sun 12:29:08 PM 40.0560 -96.4440 268° West 398 458 34,000  Level FlightAware ADS-B
Sun 12:30:01 PM 40.0560 -96.4270 90° East 398 458 34,000  Level FlightAware ADS-B
Sun 12:30:25 PM 40.0660 -96.6120 274° West 394 453 34,000  Level FlightAware ADS-B
Sun 12:31:04 PM 40.0830 -96.6850 287° West 394 453 34,000  Level FlightAware ADS-B
Sun 12:31:48 PM 40.1140 -96.8150 287° West 34,000  Level FlightAware ADS-B
Sun 12:32:57 PM 40.1490 -96.9600 288° West 398 458 34,000  Level FlightAware ADS-B
Sun 12:33:38 PM 40.1730 -97.0580 288° West 399 459 34,000  Level FlightAware ADS-B
Sun 12:34:23 PM 40.2010 -97.1680 288° West 399 459 34,000  Level FlightAware ADS-B
Sun 12:35:05 PM 40.2240 -97.2600 288° West 399 459 34,000  Level FlightAware ADS-B
Sun 12:35:54 PM 40.2440 -97.3600 285° West 399 459 34,000  Level FlightAware ADS-B
Sun 12:36:40 PM 40.2670 -97.4500 289° West 399 459 34,000  Level FlightAware ADS-B
Sun 12:37:16 PM 40.2840 -97.5210 287° West 399 459 34,000  Level FlightAware ADS-B
Sun 12:38:04 PM 40.3070 -97.6150 288° West 399 459 34,000  Level FlightAware ADS-B
Sun 12:38:40 PM 40.3250 -97.6850 289° West 399 459 34,000  Level FlightAware ADS-B
Sun 12:39:29 PM 40.3490 -97.7810 288° West 399 459 34,000  Level FlightAware ADS-B
Sun 12:40:07 PM 40.3670 -97.8550 288° West 399 459 34,000  Level FlightAware ADS-B
Sun 12:40:37 PM 40.1980 -98.0760 225° Southwest 408 470 34,000  Level FlightAware ADS-B
Sun 12:41:11 PM 40.1940 -98.1540 266° West 408 470 34,000  Level FlightAware ADS-B
Sun 12:41:56 PM 40.1890 -98.2640 267° West 407 468 34,000  Level FlightAware ADS-B
Sun 12:42:42 PM 40.1840 -98.3610 266° West 407 468 34,000  Level FlightAware ADS-B
Sun 12:43:20 PM 40.1800 -98.4400 266° West 407 468 34,000  Level FlightAware ADS-B
Sun 12:44:09 PM 40.1740 -98.5420 266° West 407 468 34,000  Level FlightAware ADS-B
Sun 12:44:33 PM 40.1720 -98.5920 267° West 407 468 34,000  Level FlightAware ADS-B
Sun 12:45:19 PM 40.1660 -98.6890 265° West 407 468 34,000  Level FlightAware ADS-B
Sun 12:46:18 PM 40.1560 -98.9210 267° West 34,000  Level FlightAware ADS-B
Sun 12:47:03 PM 40.1500 -99.0200 265° West 34,000  Level FlightAware ADS-B
Sun 12:47:57 PM 40.1420 -99.1470 265° West 410 472 34,000  Level FlightAware ADS-B
Sun 12:48:41 PM 40.1360 -99.2550 266° West 411 473 34,000  Level FlightAware ADS-B
Sun 12:49:29 PM 40.1300 -99.3770 266° West 412 474 34,000  Level FlightAware ADS-B
Sun 12:50:25 PM 40.1220 -99.5140 266° West 411 473 34,000  Level FlightAware ADS-B
Sun 12:51:10 PM 40.1150 -99.6340 266° West 411 473 34,000  Level FlightAware ADS-B
Sun 12:52:09 PM 40.1060 -99.7680 265° West 412 474 34,000  Level FlightAware ADS-B
Sun 12:52:43 PM 40.1010 -99.8680 266° West 413 475 34,000  Level FlightAware ADS-B
Sun 12:53:32 PM 40.0940 -99.9710 265° West 413 475 34,000  Level FlightAware ADS-B
Sun 12:54:13 PM 40.0860 -100.0940 265° West 413 475 34,000  Level FlightAware ADS-B
Sun 12:54:59 PM 40.0800 -100.1940 266° West 415 478 34,000  Level FlightAware ADS-B
Sun 12:55:36 PM 40.0740 -100.2730 264° West 415 478 34,000  Level FlightAware ADS-B
Sun 12:56:24 PM 40.0680 -100.3750 266° West 415 478 34,000  Level FlightAware ADS-B
Sun 12:57:02 PM 40.0620 -100.4550 264° West 415 478 34,000  Level FlightAware ADS-B
Sun 12:57:38 PM 40.0570 -100.5320 265° West 415 478 34,000  Level FlightAware ADS-B
Sun 12:58:24 PM 40.0500 -100.6300 265° West 415 478 34,000  Level FlightAware ADS-B
Sun 12:59:24 PM 40.0420 -100.7570 265° West 415 478 34,000  Level FlightAware ADS-B
Sun 01:00:32 PM 40.0320 -100.9010 265° West 415 478 34,000 1,290 Level FlightAware ADS-B
Sun 01:00:57 PM 40.0169 -101.1010 264° West 405 466 36,000 2,143 Climbing FlightAware ADS-B
Sun 01:01:28 PM 40.0114 -101.1770 265° West 405 466 36,000  Level FlightAware ADS-B
Sun 01:01:58 PM 40.0059 -101.2510 264° West 404 465 36,000  Level FlightAware ADS-B
Sun 01:02:30 PM 40.0002 -101.3270 264° West 403 464 36,000  Level FlightAware ADS-B
Sun 01:03:00 PM 39.9947 -101.4000 264° West 403 464 36,000  Level FlightAware ADS-B
Sun 01:03:31 PM 39.9891 -101.4740 264° West 403 464 36,000  Level FlightAware ADS-B
Sun 01:04:01 PM 39.9835 -101.5470 264° West 403 464 36,000  Level FlightAware ADS-B
Sun 01:04:32 PM 39.9777 -101.6210 264° West 403 464 36,000  Level FlightAware ADS-B
Sun 01:05:04 PM 39.9718 -101.6980 264° West 403 464 36,000  Level FlightAware ADS-B
Sun 01:05:34 PM 39.9660 -101.7720 264° West 403 464 36,000  Level FlightAware ADS-B
Sun 01:06:05 PM 39.9602 -101.8450 264° West 402 463 36,000  Level FlightAware ADS-B
Sun 01:06:36 PM 39.9540 -101.9210 264° West 403 464 36,000  Level FlightAware ADS-B
Sun 01:07:07 PM 39.9480 -101.9940 264° West 404 465 36,000  Level FlightAware ADS-B
Sun 01:07:37 PM 39.9421 -102.0680 264° West 404 465 36,000  Level FlightAware ADS-B
Sun 01:08:08 PM 39.9361 -102.1420 264° West 404 465 36,000  Level FlightAware ADS-B
Sun 01:08:39 PM 39.9299 -102.2170 264° West 406 467 36,000 98 Level FlightAware ADS-B
Sun 01:09:09 PM 39.9236 -102.2910 264° West 403 464 36,100  Climbing FlightAware ADS-B
Sun 01:09:40 PM 39.9173 -102.3650 264° West 405 466 36,000 -97 Descending FlightAware ADS-B
Sun 01:10:11 PM 39.9112 -102.4390 264° West 404 465 36,000  Level FlightAware ADS-B
Sun 01:10:41 PM 39.9051 -102.5100 264° West 402 463 36,000  Level FlightAware ADS-B
Sun 01:11:18 PM 39.8975 -102.6010 264° West 403 464 36,000  Level FlightAware ADS-B
Sun 01:11:52 PM 39.8903 -102.6830 263° West 403 464 36,000  Level FlightAware ADS-B
Sun 01:12:25 PM 39.8834 -102.7610 263° West 405 466 36,000  Level FlightAware ADS-B
Sun 01:12:55 PM 39.8769 -102.8340 263° West 405 466 36,000  Level FlightAware ADS-B
Sun 01:13:26 PM 39.8703 -102.9090 263° West 406 467 36,000  Level FlightAware ADS-B
Sun 01:13:57 PM 39.8636 -102.9830 263° West 406 467 36,000  Level FlightAware ADS-B
Sun 01:14:27 PM 39.8571 -103.0550 263° West 406 467 36,000  Level FlightAware ADS-B
Sun 01:14:57 PM 39.8505 -103.1290 263° West 407 468 36,000  Level FlightAware ADS-B
Sun 01:15:29 PM 39.8435 -103.2060 263° West 408 470 36,000  Level FlightAware ADS-B
Sun 01:16:00 PM 39.8366 -103.2810 263° West 408 470 36,000  Level FlightAware ADS-B
Sun 01:16:30 PM 39.8298 -103.3540 263° West 406 467 36,000  Level FlightAware ADS-B
Sun 01:17:00 PM 39.8229 -103.4280 263° West 406 467 36,000  Level FlightAware ADS-B
Sun 01:17:31 PM 39.8160 -103.5010 263° West 405 466 36,000  Level FlightAware ADS-B
Sun 01:18:03 PM 39.8086 -103.5780 263° West 404 465 36,000  Level FlightAware ADS-B
Sun 01:18:33 PM 39.8017 -103.6510 263° West 405 466 36,000  Level FlightAware ADS-B
Sun 01:19:03 PM 39.7950 -103.7210 263° West 406 467 36,000  Level FlightAware ADS-B
Sun 01:19:34 PM 39.7877 -103.7980 263° West 406 467 36,000  Level FlightAware ADS-B
Sun 01:20:05 PM 39.7802 -103.8740 263° West 407 468 36,000  Level FlightAware ADS-B
Sun 01:20:35 PM 39.7730 -103.9470 263° West 408 470 36,000  Level FlightAware ADS-B
Sun 01:21:05 PM 39.7658 -104.0210 263° West 408 470 36,000 98 Level FlightAware ADS-B
Sun 01:21:36 PM 39.7586 -104.0940 263° West 406 467 36,100  Climbing FlightAware ADS-B
Sun 01:22:07 PM 39.7511 -104.1690 263° West 405 466 36,000 -98 Descending FlightAware ADS-B
Sun 01:22:37 PM 39.7438 -104.2410 263° West 404 465 36,000  Level FlightAware ADS-B
Sun 01:23:08 PM 39.7362 -104.3150 262° West 404 465 36,000  Level FlightAware ADS-B
Sun 01:23:38 PM 39.7289 -104.3870 263° West 404 465 36,000  Level FlightAware ADS-B
Sun 01:24:08 PM 39.7215 -104.4600 263° West 404 465 36,000  Level FlightAware ADS-B
Sun 01:24:38 PM 39.7141 -104.5320 262° West 405 466 36,000  Level FlightAware ADS-B
Sun 01:25:08 PM 39.7065 -104.6040 262° West 404 465 36,000  Level FlightAware ADS-B
Sun 01:25:38 PM 39.6989 -104.6760 262° West 404 465 36,000  Level FlightAware ADS-B
Sun 01:26:09 PM 39.6912 -104.7490 262° West 403 464 36,000  Level FlightAware ADS-B
Sun 01:26:40 PM 39.6833 -104.8240 262° West 404 465 36,000  Level FlightAware ADS-B
Sun 01:27:15 PM 39.6745 -104.9070 262° West 404 465 36,000  Level FlightAware ADS-B
Sun 01:27:45 PM 39.6666 -104.9800 262° West 404 465 36,000  Level FlightAware ADS-B
Sun 01:28:17 PM 39.6584 -105.0570 262° West 405 466 36,000  Level FlightAware ADS-B
Sun 01:28:49 PM 39.6502 -105.1340 262° West 406 467 36,000  Level FlightAware ADS-B
Sun 01:29:20 PM 39.6422 -105.2080 262° West 407 468 36,000  Level FlightAware ADS-B
Sun 01:29:50 PM 39.6342 -105.2800 262° West 408 470 36,000  Level FlightAware ADS-B
Sun 01:30:20 PM 39.6261 -105.3530 262° West 410 472 36,000  Level FlightAware ADS-B
Sun 01:30:50 PM 39.6179 -105.4260 262° West 411 473 36,000  Level FlightAware ADS-B
Sun 01:31:21 PM 39.6097 -105.5000 262° West 411 473 36,000  Level FlightAware ADS-B
Sun 01:31:51 PM 39.6016 -105.5720 262° West 413 475 36,000  Level FlightAware ADS-B
Sun 01:32:21 PM 39.5928 -105.6490 262° West 412 474 36,000  Level FlightAware ADS-B
Sun 01:32:59 PM 39.5824 -105.7400 262° West 412 474 36,000  Level FlightAware ADS-B
Sun 01:33:30 PM 39.5738 -105.8160 262° West 410 472 36,000  Level FlightAware ADS-B
Sun 01:34:01 PM 39.5652 -105.8900 261° West 409 471 36,000  Level FlightAware ADS-B
Sun 01:34:33 PM 39.5564 -105.9670 262° West 408 470 36,000  Level FlightAware ADS-B
Sun 01:35:04 PM 39.5475 -106.0440 261° West 409 471 36,000  Level FlightAware ADS-B
Sun 01:35:37 PM 39.5383 -106.1220 261° West 410 472 36,000  Level FlightAware ADS-B
Sun 01:36:18 PM 39.5263 -106.2220 261° West 409 471 36,000  Level FlightAware ADS-B
Sun 01:36:49 PM 39.5177 -106.2950 261° West 410 472 36,000  Level FlightAware ADS-B
Sun 01:37:19 PM 39.5088 -106.3690 261° West 411 473 36,000  Level FlightAware ADS-B
Sun 01:37:49 PM 39.5000 -106.4420 261° West 410 472 36,000  Level FlightAware ADS-B
Sun 01:38:21 PM 39.4904 -106.5200 261° West 410 472 36,000  Level FlightAware ADS-B
Sun 01:38:52 PM 39.4815 -106.5930 261° West 410 472 36,000  Level FlightAware ADS-B
Sun 01:39:22 PM 39.4725 -106.6670 261° West 410 472 36,000  Level FlightAware ADS-B
Sun 01:39:53 PM 39.4635 -106.7410 261° West 410 472 36,000  Level FlightAware ADS-B
Sun 01:40:24 PM 39.4542 -106.8160 261° West 411 473 36,000  Level FlightAware ADS-B
Sun 01:40:55 PM 39.4450 -106.8910 261° West 409 471 36,000  Level FlightAware ADS-B
Sun 01:41:25 PM 39.4359 -106.9630 261° West 408 470 36,000  Level FlightAware ADS-B
Sun 01:41:56 PM 39.4267 -107.0370 261° West 407 468 36,000  Level FlightAware ADS-B
Sun 01:42:26 PM 39.4175 -107.1090 261° West 406 467 36,000  Level FlightAware ADS-B
Sun 01:42:56 PM 39.4083 -107.1810 261° West 405 466 36,000  Level FlightAware ADS-B
Sun 01:43:27 PM 39.3991 -107.2540 261° West 403 464 36,000  Level FlightAware ADS-B
Sun 01:43:57 PM 39.3899 -107.3260 261° West 403 464 36,000  Level FlightAware ADS-B
Sun 01:44:27 PM 39.3806 -107.3970 260° West 401 461 36,000  Level FlightAware ADS-B
Sun 01:44:58 PM 39.3711 -107.4700 260° West 402 463 36,000  Level FlightAware ADS-B
Sun 01:45:47 PM 39.3580 -107.5750 261° West 402 463 36,000  Level FlightAware ADS-B
Sun 01:46:32 PM 39.3430 -107.6890 260° West 402 463 36,000  Level FlightAware ADS-B
Sun 01:46:58 PM 39.3340 -107.7530 260° West 403 464 36,000  Level FlightAware ADS-B
Sun 01:47:46 PM 39.3190 -107.8660 260° West 401 461 36,000 -136 Level FlightAware ADS-B
Sun 01:48:26 PM 39.3060 -107.9610 260° West 401 461 35,800 -565 Descending FlightAware ADS-B
Sun 01:49:11 PM 39.2920 -108.0650 260° West 408 470 35,200 -977 Descending FlightAware ADS-B
Sun 01:49:52 PM 39.2780 -108.1660 260° West 413 475 34,400 -935 Descending FlightAware ADS-B
Sun 01:50:28 PM 39.2670 -108.2530 261° West 417 480 34,000 -293 Descending FlightAware ADS-B
Sun 01:51:14 PM 39.2510 -108.3680 260° West 417 480 34,000  Level FlightAware ADS-B
Sun 01:51:56 PM 39.2370 -108.4690 260° West 418 481 34,000  Level FlightAware ADS-B
Sun 01:52:38 PM 39.2230 -108.5730 260° West 416 479 34,000  Level FlightAware ADS-B
Sun 01:53:18 PM 39.2090 -108.6710 260° West 417 480 34,000  Level FlightAware ADS-B
Sun 01:53:54 PM 39.1970 -108.7570 260° West 417 480 34,000  Level FlightAware ADS-B
Sun 01:54:40 PM 39.1800 -108.8700 259° West 419 482 34,000  Level FlightAware ADS-B
Sun 01:55:16 PM 39.1670 -108.9600 259° West 419 482 34,000  Level FlightAware ADS-B
Sun 01:55:56 PM 39.1530 -109.0570 259° West 421 484 34,000  Level FlightAware ADS-B
Sun 01:56:45 PM 39.1360 -109.1780 260° West 420 483 34,000  Level FlightAware ADS-B
Sun 01:57:26 PM 39.1210 -109.2770 259° West 419 482 34,000  Level FlightAware ADS-B
Sun 01:58:04 PM 39.1080 -109.3720 260° West 419 482 34,000  Level FlightAware ADS-B
Sun 01:58:43 PM 39.0940 -109.4630 259° West 419 482 34,000  Level FlightAware ADS-B
Sun 01:59:22 PM 39.0790 -109.5610 259° West 418 481 34,000  Level FlightAware ADS-B
Sun 02:00:22 PM 39.0640 -109.6660 260° West 419 482 34,000  Level FlightAware ADS-B
Sun 02:00:47 PM 39.0490 -109.7680 259° West 418 481 34,000  Level FlightAware ADS-B
Sun 02:01:27 PM 39.0340 -109.8650 259° West 418 481 34,000  Level FlightAware ADS-B
Sun 02:02:13 PM 39.0180 -109.9680 259° West 419 482 34,000  Level FlightAware ADS-B
Sun 02:03:04 PM 38.9980 -110.1020 259° West 419 482 34,000  Level FlightAware ADS-B
Sun 02:03:44 PM 38.9820 -110.2020 258° West 420 483 34,000  Level FlightAware ADS-B
Sun 02:04:24 PM 38.9670 -110.2980 259° West 420 483 34,000  Level FlightAware ADS-B
Sun 02:05:21 PM 38.9460 -110.4360 259° West 419 482 34,000  Level FlightAware ADS-B
Sun 02:06:04 PM 38.9290 -110.5400 258° West 419 482 34,000  Level FlightAware ADS-B
Sun 02:06:28 PM 38.9210 -110.5940 259° West 420 483 34,000  Level FlightAware ADS-B
Sun 02:07:12 PM 38.9030 -110.7070 258° West 419 482 34,000  Level FlightAware ADS-B
Sun 02:07:53 PM 38.8890 -110.7940 258° West 418 481 34,000  Level FlightAware ADS-B
Sun 02:08:37 PM 38.8700 -110.9110 258° West 418 481 34,000  Level FlightAware ADS-B
Sun 02:09:24 PM 38.8530 -111.0150 258° West 419 482 34,000  Level FlightAware ADS-B
Sun 02:10:07 PM 38.8340 -111.1300 258° West 419 482 34,000  Level FlightAware ADS-B
Sun 02:10:31 PM 38.8239 -111.1930 258° West 420 483 34,000  Level FlightAware ADS-B
Sun 02:11:22 PM 38.8035 -111.3170 258° West 420 483 34,000  Level FlightAware ADS-B
Sun 02:12:00 PM 38.7882 -111.4090 258° West 420 483 34,000  Level FlightAware ADS-B
Sun 02:12:37 PM 38.7735 -111.4990 258° West 420 483 34,000  Level FlightAware ADS-B
Sun 02:13:29 PM 38.7522 -111.6250 258° West 421 484 34,000  Level FlightAware ADS-B
Sun 02:14:03 PM 38.7383 -111.7070 258° West 423 487 34,000  Level FlightAware ADS-B
Sun 02:14:35 PM 38.7251 -111.7850 258° West 422 486 34,000  Level FlightAware ADS-B
Sun 02:15:12 PM 38.7096 -111.8750 258° West 422 486 34,000  Level FlightAware ADS-B
Sun 02:15:49 PM 38.6942 -111.9660 258° West 422 486 34,000  Level FlightAware ADS-B
Sun 02:16:20 PM 38.6815 -112.0410 258° West 421 484 34,000  Level FlightAware ADS-B
Sun 02:17:05 PM 38.6627 -112.1490 257° West 421 484 34,000  Level FlightAware ADS-B
Sun 02:17:35 PM 38.6499 -112.2230 258° West 421 484 34,000  Level FlightAware ADS-B
Sun 02:18:05 PM 38.6372 -112.2960 257° West 422 486 34,000  Level FlightAware ADS-B
Sun 02:18:45 PM 38.6201 -112.3930 257° West 421 484 34,000  Level FlightAware ADS-B
Sun 02:19:30 PM 38.6370 -112.3190 74° East 420 483 34,000  Level FlightAware ADS-B
Sun 02:19:49 PM 38.5929 -112.5480 256° West 422 486 34,000  Level FlightAware ADS-B
Sun 02:20:38 PM 38.5720 -112.6660 257° West 422 486 34,000  Level FlightAware ADS-B
Sun 02:21:16 PM 38.5608 -112.7308 257° West 423 487 34,000  Level Salt Lake Center
Sun 02:22:18 PM 38.5294 -112.9042 257° West 421 484 34,000  Level Salt Lake Center
Sun 02:23:20 PM 38.5033 -113.0497 257° West 421 484 34,000  Level Salt Lake Center
Sun 02:24:22 PM 38.4764 -113.1953 257° West 423 487 34,000  Level Salt Lake Center
Sun 02:25:24 PM 38.4506 -113.3400 257° West 421 484 34,000  Level Salt Lake Center
Sun 02:26:26 PM 38.4242 -113.4839 257° West 418 481 34,000  Level Salt Lake Center
Sun 02:27:28 PM 38.3964 -113.6289 256° West 421 484 34,000  Level Salt Lake Center
Sun 02:28:30 PM 38.3650 -113.8019 257° West 421 484 34,000  Level Salt Lake Center
Sun 02:29:32 PM 38.3367 -113.9458 256° West 421 484 34,000  Level Salt Lake Center
Sun 02:30:34 PM 38.3094 -114.0908 257° West 423 487 34,000  Level Salt Lake Center
Sun 02:31:36 PM 38.2825 -114.2297 256° West 411 473 34,000  Level Salt Lake Center
Sun 02:32:38 PM 38.2564 -114.3656 256° West 400 460 34,000  Level Salt Lake Center
Sun 02:33:40 PM 38.2506 -114.5358 268° West 404 465 34,000  Level Salt Lake Center
Sun 02:34:42 PM 38.3206 -114.6625 305° West 441 507 34,000 48 Level Salt Lake Center
Sun 02:35:44 PM 38.3864 -114.7858 304° West 420 483 34,100  Climbing Salt Lake Center
Sun 02:36:46 PM 38.3769 -114.9303 265° West 405 466 34,000 -48 Descending Salt Lake Center
Sun 02:37:48 PM 38.3617 -115.0706 262° West 400 460 34,000  Level Salt Lake Center
Sun 02:38:51 PM 38.3447 -115.2131 261° West 405 466 34,000  Level Salt Lake Center
Sun 02:39:53 PM 38.3253 -115.3683 261° West 403 464 34,000  Level Salt Lake Center
Sun 02:40:55 PM 38.3075 -115.5100 261° West 405 466 34,000  Level Salt Lake Center
Sun 02:41:57 PM 38.2903 -115.6511 261° West 404 465 34,000  Level Salt Lake Center
Sun 02:42:59 PM 38.2686 -115.8211 261° West 404 465 34,000  Level Salt Lake Center
Sun 02:44:01 PM 38.2506 -115.9628 261° West 406 467 34,000  Level Salt Lake Center
Sun 02:45:03 PM 38.2322 -116.1019 261° West 402 463 34,000  Level Salt Lake Center
Sun 02:46:05 PM 38.2147 -116.2436 261° West 403 464 34,000  Level Salt Lake Center
Sun 02:47:07 PM 38.1950 -116.3836 260° West 404 465 34,000  Level Salt Lake Center
Sun 02:48:09 PM 38.1769 -116.5250 261° West 403 464 34,000  Level Salt Lake Center
Sun 02:49:11 PM 38.1583 -116.6642 260° West 402 463 34,000  Level Salt Lake Center
Sun 02:50:13 PM 38.1347 -116.8333 260° West 404 465 34,000  Level Salt Lake Center
Sun 02:51:15 PM 38.1156 -116.9744 260° West 404 465 34,000  Level Salt Lake Center
Sun 02:52:17 PM 38.0967 -117.1156 260° West 401 461 34,000  Level Salt Lake Center
Sun 02:58:30 PM 38.1320 -118.0320 260° West 416 479 34,000  Level FlightAware ADS-B
Sun 02:59:04 PM 38.1330 -118.1120 271° West 416 479 34,000  Level FlightAware ADS-B
Sun 02:59:55 PM 38.1330 -118.2180 270° West 416 479 34,000  Level FlightAware ADS-B
Sun 03:00:32 PM 38.1330 -118.2950 270° West 416 479 34,000  Level FlightAware ADS-B
Sun 03:01:20 PM 38.1330 -118.3950 270° West 416 479 34,000  Level FlightAware ADS-B
Sun 03:01:57 PM 38.1330 -118.4720 270° West 416 479 34,000  Level FlightAware ADS-B
Sun 03:02:45 PM 38.1330 -118.5720 270° West 416 479 34,000  Level FlightAware ADS-B
Sun 03:03:19 PM 38.1330 -118.6420 270° West 416 479 34,000  Level FlightAware ADS-B
Sun 03:04:06 PM 38.2400 -118.8340 305° West 427 491 34,000  Level FlightAware ADS-B
Sun 03:05:14 PM 38.2430 -118.9930 271° West 402 463 34,000  Level FlightAware ADS-B
Sun 03:05:56 PM 38.2150 -119.0860 249° West 403 464 34,000  Level FlightAware ADS-B
Sun 03:06:40 PM 38.1870 -119.1830 250° West 403 464 34,000  Level FlightAware ADS-B
Sun 03:07:24 PM 38.1590 -119.2760 249° West 406 467 34,000  Level FlightAware ADS-B
Sun 03:08:04 PM 38.1300 -119.3700 249° West 410 472 34,000 -143 Level FlightAware ADS-B
Sun 03:08:48 PM 38.0990 -119.4690 248° West 418 481 33,800 -439 Descending FlightAware ADS-B
Sun 03:09:26 PM 38.0740 -119.5530 249° West 418 481 33,400 -682 Descending FlightAware ADS-B
Sun 03:10:16 PM 38.0369 -119.6710 248° West 423 487 32,800 -714 Descending FlightAware ADS-B
Sun 03:10:50 PM 38.0120 -119.7500 248° West 422 486 32,400 -692 Descending FlightAware ADS-B
Sun 03:11:08 PM 37.9998 -119.7900 249° West 422 486 32,200 -698 Descending FlightAware ADS-B
Sun 03:12:16 PM 37.9520 -119.9430 248° West 422 486 31,400 -729 Descending FlightAware ADS-B
Sun 03:12:55 PM 37.9240 -120.0300 248° West 421 484 30,900 -692 Descending FlightAware ADS-B
Sun 03:13:34 PM 37.8945 -120.1250 249° West 419 482 30,500 -692 Descending FlightAware ADS-B
Sun 03:14:13 PM 37.8670 -120.2120 248° West 419 482 30,000 -730 Descending FlightAware ADS-B
Sun 03:14:48 PM 37.8409 -120.2940 248° West 420 483 29,600 -706 Descending FlightAware ADS-B
Sun 03:15:21 PM 37.8172 -120.3690 248° West 421 484 29,200 -646 Descending FlightAware ADS-B
Sun 03:15:53 PM 37.7943 -120.4400 248° West 418 481 28,900 -656 Descending FlightAware ADS-B
Sun 03:16:25 PM 37.7706 -120.5150 248° West 416 479 28,500 -1,315 Descending FlightAware ADS-B
Sun 03:17:06 PM 37.7414 -120.6060 248° West 411 473 27,300 -2,104 Descending FlightAware ADS-B
Sun 03:17:42 PM 37.7162 -120.6840 248° West 406 467 25,800 -2,314 Descending FlightAware ADS-B
Sun 03:18:16 PM 37.6919 -120.7590 248° West 396 456 24,600 -2,182 Descending FlightAware ADS-B
Sun 03:18:48 PM 37.6707 -120.8240 248° West 388 447 23,400 -2,337 Descending FlightAware ADS-B
Sun 03:19:51 PM 37.6300 -120.9500 248° West 376 433 20,900 -1,307 Descending FlightAware ADS-B
Sun 03:21:47 PM 37.6000 -121.1980 261° West 359 413 19,500 -1,117 Descending FlightAware ADS-B
Sun 03:22:16 PM 37.5900 -121.2590 258° West 350 403 18,200 -3,493 Descending FlightAware ADS-B
Sun 03:22:54 PM 37.5502 -121.3170 229° Southwest 364 419 15,600 -3,913 Descending FlightAware ADS-B
Sun 03:23:25 PM 37.5113 -121.3650 224° Southwest 373 429 13,700 -3,231 Descending FlightAware ADS-B
Sun 03:23:46 PM 37.4857 -121.3970 225° Southwest 361 415 12,800 -2,571 Descending FlightAware ADS-B
Sun 03:23:53 PM 37.4781 -121.4080 229° Southwest 357 411 12,500 -2,471 Descending FlightAware ADS-B
Sun 03:24:03 PM 37.4696 -121.4250 238° Southwest 355 409 12,100 -1,698 Descending FlightAware ADS-B
Sun 03:24:46 PM 37.4761 -121.5060 276° West 325 374 11,000 -971 Descending FlightAware ADS-B
Sun 03:25:11 PM 37.4845 -121.5490 284° West 287 330 11,000 -111 Level FlightAware ADS-B
Sun 03:25:40 PM 37.4831 -121.5920 268° West 250 288 10,900 -800 Descending FlightAware ADS-B
Sun 03:26:11 PM 37.4831 -121.6360 270° West 244 281 10,200 -1,304 Descending FlightAware ADS-B
Sun 03:26:26 PM 37.4832 -121.6570 270° West 233 268 9,900 -968 Descending FlightAware ADS-B
Sun 03:26:42 PM 37.4831 -121.6780 270° West 221 254 9,700 -1,125 Descending FlightAware ADS-B
Sun 03:26:58 PM 37.4830 -121.6990 270° West 220 253 9,300 -1,059 Descending FlightAware ADS-B
Sun 03:27:16 PM 37.4829 -121.7220 270° West 222 255 9,100 -529 Descending FlightAware ADS-B
Sun 03:27:32 PM 37.4829 -121.7420 270° West 224 258 9,000 -194 Descending FlightAware ADS-B
Sun 03:27:47 PM 37.4829 -121.7630 270° West 223 257 9,000 -353 Level FlightAware ADS-B
Sun 03:28:06 PM 37.4828 -121.7860 270° West 218 251 8,800 -1,029 Descending FlightAware ADS-B
Sun 03:28:22 PM 37.4827 -121.8060 270° West 219 252 8,400 -1,235 Descending FlightAware ADS-B
Sun 03:28:40 PM 37.4826 -121.8300 270° West 217 250 8,100 -500 Descending FlightAware ADS-B
Sun 03:29:10 PM 37.4823 -121.8670 269° West 216 249 8,000 -167 Descending FlightAware ADS-B
Sun 03:29:16 PM 37.4823 -121.8750 270° West 216 249 8,000  Level FlightAware ADS-B
Sun 03:29:19 PM 37.4825 -121.8790 274° West 216 249 8,000 -857 Level FlightAware ADS-B
Sun 03:29:23 PM 37.4829 -121.8840 276° West 217 250 7,900 -750 Descending FlightAware ADS-B
Sun 03:29:27 PM 37.4838 -121.8890 283° West 217 250 7,900 -900 Level FlightAware ADS-B
Sun 03:29:43 PM 37.4879 -121.9080 285° West 212 244 7,600 -1,154 Descending FlightAware ADS-B
Sun 03:29:53 PM 37.4904 -121.9200 285° West 208 239 7,400 -1,154 Descending FlightAware ADS-B
Sun 03:30:09 PM 37.4940 -121.9380 284° West 206 237 7,100 -1,125 Descending FlightAware ADS-B
Sun 03:30:25 PM 37.4976 -121.9570 283° West 203 234 6,800 -1,125 Descending FlightAware ADS-B
Sun 03:30:41 PM 37.5011 -121.9750 284° West 203 234 6,500 -1,200 Descending FlightAware ADS-B
Sun 03:31:00 PM 37.5051 -121.9960 284° West 198 228 6,100 -1,154 Descending FlightAware ADS-B
Sun 03:31:07 PM 37.5070 -122.0040 287° West 194 223 6,000 -857 Descending FlightAware ADS-B
Sun 03:31:14 PM 37.5094 -122.0110 293° West 191 220 5,900 -1,091 Descending FlightAware ADS-B
Sun 03:31:29 PM 37.5143 -122.0270 291° West 182 209 5,600 -1,000 Descending FlightAware ADS-B
Sun 03:31:38 PM 37.5169 -122.0350 292° West 177 204 5,500 -1,000 Descending FlightAware ADS-B
Sun 03:31:53 PM 37.5214 -122.0490 292° West 173 199 5,200 -1,400 Descending FlightAware ADS-B
Sun 03:32:08 PM 37.5257 -122.0630 291° West 169 194 4,800 -1,448 Descending FlightAware ADS-B
Sun 03:32:22 PM 37.5294 -122.0760 290° West 167 192 4,500 -1,500 Descending FlightAware ADS-B
Sun 03:32:40 PM 37.5345 -122.0920 292° West 166 191 4,000 -1,412 Descending FlightAware ADS-B
Sun 03:32:56 PM 37.5388 -122.1060 291° West 165 190 3,700 -1,333 Descending FlightAware ADS-B
Sun 03:33:07 PM 37.5419 -122.1170 290° West 166 191 3,400 -1,059 Descending FlightAware ADS-B
Sun 03:33:13 PM 37.5435 -122.1220 292° West 165 190 3,400 -857 Level FlightAware ADS-B
Sun 03:33:28 PM 37.5476 -122.1360 290° West 165 190 3,100 -828 Descending FlightAware ADS-B
Sun 03:33:42 PM 37.5515 -122.1480 292° West 168 193 3,000 -800 Descending FlightAware ADS-B
Sun 03:33:58 PM 37.5560 -122.1630 291° West 172 198 2,700 -968 Descending FlightAware ADS-B
Sun 03:34:13 PM 37.5603 -122.1770 291° West 170 196 2,500 -828 Descending FlightAware ADS-B
Sun 03:34:27 PM 37.5641 -122.1900 290° West 167 192 2,300 -800 Descending FlightAware ADS-B
Sun 03:34:43 PM 37.5685 -122.2040 292° West 164 189 2,100 -857 Descending FlightAware ADS-B
Sun 03:34:55 PM 37.5718 -122.2140 293° West 164 189 1,900 -500 Descending FlightAware ADS-B
Sun 03:35:07 PM 37.5748 -122.2240 291° West 162 186 1,900  Level FlightAware ADS-B
Sun 03:35:14 PM 37.5767 -122.2310 289° West 163 188 1,900 -273 Level FlightAware ADS-B
Sun 03:35:29 PM 37.5806 -122.2450 289° West 161 185 1,800 -480 Descending FlightAware ADS-B
Sun 03:35:39 PM 37.5828 -122.2530 289° West 153 176 1,700 -500 Descending FlightAware ADS-B
Sun 03:35:53 PM 37.5858 -122.2650 288° West 140 161 1,600 -429 Descending FlightAware ADS-B
Sun 03:36:07 PM 37.5884 -122.2740 290° West 131 151 1,500 -828 Descending FlightAware ADS-B
Sun 03:36:22 PM 37.5910 -122.2850 287° West 129 148 1,200 -968 Descending FlightAware ADS-B
Sun 03:36:38 PM 37.5938 -122.2970 286° West 128 147 1,000 -563 Descending FlightAware ADS-B
Sun 03:36:54 PM 37.5964 -122.3080 287° West 129 148 900 -462 Descending FlightAware ADS-B
Sun 03:37:17 PM 37.6007 -122.3250 288° West 130 150 700 -667 Descending FlightAware ADS-B
Sun 03:37:30 PM 37.6039 -122.3340 294° West 125 144 500 -818 Descending FlightAware ADS-B
Sun 03:37:39 PM 37.6060 -122.3390 298° West 125 144 400 -600 Descending FlightAware ADS-B
Sun 03:37:50 PM 37.6089 -122.3460 298° West 122 140 300 -545 Descending FlightAware ADS-B
Sun 03:38:01 PM 37.6119 -122.3530 298° West 121 139 200 -600 Descending FlightAware ADS-B
Sun 03:38:10 PM 37.6143 -122.3590 297° West 120 138 100 -667 Descending FlightAware ADS-B
Sun 03:38:52 PM 37.6220 -122.3780 297° West 96 110 -143 Descending FlightAware ADS-B
Sun 03:39:23 PM 37.6200 -122.3790 202° Southwest 18 21  Level FlightAware ADS-B
Sun 03:40:38 PM 37.6180 -122.3800 202° Southwest 13 15  Level FlightAware ADS-B
Sun 03:46:00 PM 37.6167 -122.3667 322° Northwest  Level FlightAware Approximate
Sun 03:47:00 PM 37.6191 -122.3752 322° Northwest  Level Estimated

Login

Don't have an account? Register now (free) for customized features, flight alerts, and more!